sensor_id;sensor_type;location;lat;lon;timestamp;P1;durP1;ratioP1;P2;durP2;ratioP2
21148;SDS011;10732;51.472;6.466;2023-08-12T00:00:05;19.35;;;15.10;;
21148;SDS011;10732;51.472;6.466;2023-08-12T00:02:36;16.38;;;13.55;;
21148;SDS011;10732;51.472;6.466;2023-08-12T00:05:03;18.00;;;14.88;;
21148;SDS011;10732;51.472;6.466;2023-08-12T00:07:29;18.48;;;15.13;;
21148;SDS011;10732;51.472;6.466;2023-08-12T00:09:55;19.52;;;15.90;;
21148;SDS011;10732;51.472;6.466;2023-08-12T00:12:21;22.20;;;16.08;;
21148;SDS011;10732;51.472;6.466;2023-08-12T00:14:47;20.95;;;15.43;;
21148;SDS011;10732;51.472;6.466;2023-08-12T00:17:12;22.33;;;16.60;;
21148;SDS011;10732;51.472;6.466;2023-08-12T00:19:38;19.50;;;16.20;;
21148;SDS011;10732;51.472;6.466;2023-08-12T00:22:03;25.40;;;18.08;;
21148;SDS011;10732;51.472;6.466;2023-08-12T00:24:29;25.92;;;17.70;;
21148;SDS011;10732;51.472;6.466;2023-08-12T00:26:55;21.65;;;16.77;;
21148;SDS011;10732;51.472;6.466;2023-08-12T00:29:21;23.63;;;17.50;;
21148;SDS011;10732;51.472;6.466;2023-08-12T00:31:47;22.88;;;17.67;;
21148;SDS011;10732;51.472;6.466;2023-08-12T00:34:12;20.83;;;17.17;;
21148;SDS011;10732;51.472;6.466;2023-08-12T00:36:38;22.42;;;18.60;;
21148;SDS011;10732;51.472;6.466;2023-08-12T00:39:03;21.50;;;17.30;;
21148;SDS011;10732;51.472;6.466;2023-08-12T00:41:30;24.17;;;18.45;;
21148;SDS011;10732;51.472;6.466;2023-08-12T00:43:55;22.35;;;17.83;;
21148;SDS011;10732;51.472;6.466;2023-08-12T00:46:21;19.67;;;16.15;;
21148;SDS011;10732;51.472;6.466;2023-08-12T00:48:48;19.58;;;17.02;;
21148;SDS011;10732;51.472;6.466;2023-08-12T00:51:15;23.02;;;18.10;;
21148;SDS011;10732;51.472;6.466;2023-08-12T00:53:41;19.88;;;16.80;;
21148;SDS011;10732;51.472;6.466;2023-08-12T00:56:08;21.40;;;17.48;;
21148;SDS011;10732;51.472;6.466;2023-08-12T00:58:34;22.15;;;17.42;;
21148;SDS011;10732;51.472;6.466;2023-08-12T01:01:00;24.77;;;18.17;;
21148;SDS011;10732;51.472;6.466;2023-08-12T01:03:26;20.98;;;17.45;;
21148;SDS011;10732;51.472;6.466;2023-08-12T01:05:51;24.67;;;16.67;;
21148;SDS011;10732;51.472;6.466;2023-08-12T01:08:17;21.45;;;16.83;;
21148;SDS011;10732;51.472;6.466;2023-08-12T01:10:45;22.40;;;16.02;;
21148;SDS011;10732;51.472;6.466;2023-08-12T01:16:03;18.90;;;16.25;;
21148;SDS011;10732;51.472;6.466;2023-08-12T01:18:32;22.80;;;17.77;;
21148;SDS011;10732;51.472;6.466;2023-08-12T01:20:58;24.15;;;18.33;;
21148;SDS011;10732;51.472;6.466;2023-08-12T01:23:24;20.92;;;17.48;;
21148;SDS011;10732;51.472;6.466;2023-08-12T01:25:50;22.48;;;17.83;;
21148;SDS011;10732;51.472;6.466;2023-08-12T01:28:15;25.30;;;17.33;;
21148;SDS011;10732;51.472;6.466;2023-08-12T01:30:51;23.13;;;17.60;;
21148;SDS011;10732;51.472;6.466;2023-08-12T01:33:36;26.65;;;18.63;;
21148;SDS011;10732;51.472;6.466;2023-08-12T01:36:22;21.15;;;17.70;;
21148;SDS011;10732;51.472;6.466;2023-08-12T01:38:50;23.88;;;18.98;;
21148;SDS011;10732;51.472;6.466;2023-08-12T01:41:16;23.58;;;18.92;;
21148;SDS011;10732;51.472;6.466;2023-08-12T01:43:45;23.83;;;18.77;;
21148;SDS011;10732;51.472;6.466;2023-08-12T01:46:11;21.35;;;18.30;;
21148;SDS011;10732;51.472;6.466;2023-08-12T01:48:37;25.67;;;18.40;;
21148;SDS011;10732;51.472;6.466;2023-08-12T01:51:02;23.90;;;19.73;;
21148;SDS011;10732;51.472;6.466;2023-08-12T01:53:28;26.90;;;19.35;;
21148;SDS011;10732;51.472;6.466;2023-08-12T01:55:53;26.85;;;18.50;;
21148;SDS011;10732;51.472;6.466;2023-08-12T01:58:19;27.83;;;19.50;;
21148;SDS011;10732;51.472;6.466;2023-08-12T02:00:45;25.73;;;19.23;;
21148;SDS011;10732;51.472;6.466;2023-08-12T02:03:10;29.30;;;20.10;;
21148;SDS011;10732;51.472;6.466;2023-08-12T02:05:36;26.88;;;20.50;;
21148;SDS011;10732;51.472;6.466;2023-08-12T02:08:02;25.42;;;20.38;;
21148;SDS011;10732;51.472;6.466;2023-08-12T02:10:29;27.95;;;21.40;;
21148;SDS011;10732;51.472;6.466;2023-08-12T02:12:54;24.23;;;21.23;;
21148;SDS011;10732;51.472;6.466;2023-08-12T02:15:20;27.13;;;21.95;;
21148;SDS011;10732;51.472;6.466;2023-08-12T02:17:46;25.25;;;21.55;;
21148;SDS011;10732;51.472;6.466;2023-08-12T02:20:12;27.63;;;21.10;;
21148;SDS011;10732;51.472;6.466;2023-08-12T02:22:37;27.13;;;21.15;;
21148;SDS011;10732;51.472;6.466;2023-08-12T02:25:03;26.70;;;21.58;;
21148;SDS011;10732;51.472;6.466;2023-08-12T02:27:29;26.85;;;20.60;;
21148;SDS011;10732;51.472;6.466;2023-08-12T02:29:54;26.40;;;20.90;;
21148;SDS011;10732;51.472;6.466;2023-08-12T02:32:20;29.77;;;23.48;;
21148;SDS011;10732;51.472;6.466;2023-08-12T02:34:45;26.48;;;21.73;;
21148;SDS011;10732;51.472;6.466;2023-08-12T02:37:11;27.35;;;21.55;;
21148;SDS011;10732;51.472;6.466;2023-08-12T02:39:38;29.73;;;23.25;;
21148;SDS011;10732;51.472;6.466;2023-08-12T02:42:04;27.67;;;22.42;;
21148;SDS011;10732;51.472;6.466;2023-08-12T02:44:29;29.15;;;22.60;;
21148;SDS011;10732;51.472;6.466;2023-08-12T02:46:55;29.13;;;24.45;;
21148;SDS011;10732;51.472;6.466;2023-08-12T02:49:20;32.80;;;23.33;;
21148;SDS011;10732;51.472;6.466;2023-08-12T02:51:46;29.80;;;22.67;;
21148;SDS011;10732;51.472;6.466;2023-08-12T02:54:11;31.95;;;23.92;;
21148;SDS011;10732;51.472;6.466;2023-08-12T02:56:37;31.17;;;23.73;;
21148;SDS011;10732;51.472;6.466;2023-08-12T02:59:03;30.15;;;24.05;;
21148;SDS011;10732;51.472;6.466;2023-08-12T03:01:28;32.67;;;23.83;;
21148;SDS011;10732;51.472;6.466;2023-08-12T03:03:55;32.35;;;23.35;;
21148;SDS011;10732;51.472;6.466;2023-08-12T03:06:20;34.10;;;25.55;;
21148;SDS011;10732;51.472;6.466;2023-08-12T03:08:46;33.17;;;23.95;;
21148;SDS011;10732;51.472;6.466;2023-08-12T03:11:11;33.67;;;24.77;;
21148;SDS011;10732;51.472;6.466;2023-08-12T03:13:37;31.50;;;24.98;;
21148;SDS011;10732;51.472;6.466;2023-08-12T03:16:02;32.80;;;24.83;;
21148;SDS011;10732;51.472;6.466;2023-08-12T03:18:28;32.05;;;26.02;;
21148;SDS011;10732;51.472;6.466;2023-08-12T03:20:53;34.38;;;25.58;;
21148;SDS011;10732;51.472;6.466;2023-08-12T03:23:19;34.83;;;25.60;;
21148;SDS011;10732;51.472;6.466;2023-08-12T03:25:46;35.58;;;26.33;;
21148;SDS011;10732;51.472;6.466;2023-08-12T03:28:13;39.90;;;26.48;;
21148;SDS011;10732;51.472;6.466;2023-08-12T03:30:39;38.65;;;27.52;;
21148;SDS011;10732;51.472;6.466;2023-08-12T03:33:04;37.17;;;27.38;;
21148;SDS011;10732;51.472;6.466;2023-08-12T03:35:30;35.75;;;27.38;;
21148;SDS011;10732;51.472;6.466;2023-08-12T03:37:55;41.92;;;28.13;;
21148;SDS011;10732;51.472;6.466;2023-08-12T03:40:21;38.80;;;28.42;;
21148;SDS011;10732;51.472;6.466;2023-08-12T03:42:46;43.35;;;30.52;;
21148;SDS011;10732;51.472;6.466;2023-08-12T03:45:12;44.28;;;30.40;;
21148;SDS011;10732;51.472;6.466;2023-08-12T03:47:37;43.50;;;30.30;;
21148;SDS011;10732;51.472;6.466;2023-08-12T03:50:03;43.55;;;30.27;;
21148;SDS011;10732;51.472;6.466;2023-08-12T03:52:29;42.60;;;31.33;;
21148;SDS011;10732;51.472;6.466;2023-08-12T03:54:55;46.00;;;32.95;;
21148;SDS011;10732;51.472;6.466;2023-08-12T03:57:20;45.78;;;31.13;;
21148;SDS011;10732;51.472;6.466;2023-08-12T03:59:46;46.60;;;33.15;;
21148;SDS011;10732;51.472;6.466;2023-08-12T04:02:11;46.47;;;34.30;;
21148;SDS011;10732;51.472;6.466;2023-08-12T04:04:37;51.60;;;35.53;;
21148;SDS011;10732;51.472;6.466;2023-08-12T04:07:02;45.72;;;35.25;;
21148;SDS011;10732;51.472;6.466;2023-08-12T04:09:28;50.13;;;36.17;;
21148;SDS011;10732;51.472;6.466;2023-08-12T04:11:54;53.13;;;37.15;;
21148;SDS011;10732;51.472;6.466;2023-08-12T04:14:19;54.78;;;37.60;;
21148;SDS011;10732;51.472;6.466;2023-08-12T04:16:45;48.92;;;36.83;;
21148;SDS011;10732;51.472;6.466;2023-08-12T04:19:11;48.33;;;36.67;;
21148;SDS011;10732;51.472;6.466;2023-08-12T04:21:36;55.53;;;38.60;;
21148;SDS011;10732;51.472;6.466;2023-08-12T04:24:02;58.28;;;38.40;;
21148;SDS011;10732;51.472;6.466;2023-08-12T04:26:27;57.60;;;38.67;;
21148;SDS011;10732;51.472;6.466;2023-08-12T04:28:53;49.55;;;36.55;;
21148;SDS011;10732;51.472;6.466;2023-08-12T04:31:18;57.97;;;41.58;;
21148;SDS011;10732;51.472;6.466;2023-08-12T04:33:44;62.80;;;40.35;;
21148;SDS011;10732;51.472;6.466;2023-08-12T04:36:09;55.35;;;37.03;;
21148;SDS011;10732;51.472;6.466;2023-08-12T04:38:35;58.28;;;40.75;;
21148;SDS011;10732;51.472;6.466;2023-08-12T04:41:00;58.88;;;40.13;;
21148;SDS011;10732;51.472;6.466;2023-08-12T04:43:27;59.78;;;40.75;;
21148;SDS011;10732;51.472;6.466;2023-08-12T04:45:52;58.58;;;40.15;;
21148;SDS011;10732;51.472;6.466;2023-08-12T04:48:18;59.70;;;39.45;;
21148;SDS011;10732;51.472;6.466;2023-08-12T04:50:43;53.65;;;39.38;;
21148;SDS011;10732;51.472;6.466;2023-08-12T04:53:09;57.55;;;38.08;;
21148;SDS011;10732;51.472;6.466;2023-08-12T04:55:35;53.15;;;35.40;;
21148;SDS011;10732;51.472;6.466;2023-08-12T04:58:01;51.67;;;36.55;;
21148;SDS011;10732;51.472;6.466;2023-08-12T05:00:27;57.28;;;36.97;;
21148;SDS011;10732;51.472;6.466;2023-08-12T05:02:53;56.30;;;36.45;;
21148;SDS011;10732;51.472;6.466;2023-08-12T05:05:19;48.15;;;34.88;;
21148;SDS011;10732;51.472;6.466;2023-08-12T05:07:45;51.22;;;35.70;;
21148;SDS011;10732;51.472;6.466;2023-08-12T05:10:14;51.47;;;35.40;;
21148;SDS011;10732;51.472;6.466;2023-08-12T05:12:41;54.35;;;36.03;;
21148;SDS011;10732;51.472;6.466;2023-08-12T05:15:07;52.33;;;35.60;;
21148;SDS011;10732;51.472;6.466;2023-08-12T05:17:33;52.10;;;36.67;;
21148;SDS011;10732;51.472;6.466;2023-08-12T05:19:58;52.90;;;35.17;;
21148;SDS011;10732;51.472;6.466;2023-08-12T05:22:24;53.13;;;36.45;;
21148;SDS011;10732;51.472;6.466;2023-08-12T05:24:49;50.40;;;35.75;;
21148;SDS011;10732;51.472;6.466;2023-08-12T05:27:15;52.13;;;36.40;;
21148;SDS011;10732;51.472;6.466;2023-08-12T05:29:40;52.03;;;36.10;;
21148;SDS011;10732;51.472;6.466;2023-08-12T05:32:06;57.25;;;33.88;;
21148;SDS011;10732;51.472;6.466;2023-08-12T05:34:32;46.50;;;33.85;;
21148;SDS011;10732;51.472;6.466;2023-08-12T05:36:57;51.97;;;34.53;;
21148;SDS011;10732;51.472;6.466;2023-08-12T05:39:23;46.17;;;33.08;;
21148;SDS011;10732;51.472;6.466;2023-08-12T05:41:48;47.42;;;32.10;;
21148;SDS011;10732;51.472;6.466;2023-08-12T05:44:14;48.42;;;33.63;;
21148;SDS011;10732;51.472;6.466;2023-08-12T05:46:40;43.92;;;32.05;;
21148;SDS011;10732;51.472;6.466;2023-08-12T05:49:05;45.65;;;31.83;;
21148;SDS011;10732;51.472;6.466;2023-08-12T05:51:31;40.55;;;28.98;;
21148;SDS011;10732;51.472;6.466;2023-08-12T05:53:57;49.97;;;31.30;;
21148;SDS011;10732;51.472;6.466;2023-08-12T05:56:22;38.42;;;28.92;;
21148;SDS011;10732;51.472;6.466;2023-08-12T05:58:48;38.88;;;28.10;;
21148;SDS011;10732;51.472;6.466;2023-08-12T06:01:13;39.60;;;27.08;;
21148;SDS011;10732;51.472;6.466;2023-08-12T06:03:40;42.58;;;27.42;;
21148;SDS011;10732;51.472;6.466;2023-08-12T06:06:05;45.75;;;29.08;;
21148;SDS011;10732;51.472;6.466;2023-08-12T06:08:31;41.95;;;28.13;;
21148;SDS011;10732;51.472;6.466;2023-08-12T06:10:56;46.05;;;30.95;;
21148;SDS011;10732;51.472;6.466;2023-08-12T06:13:22;44.75;;;32.00;;
21148;SDS011;10732;51.472;6.466;2023-08-12T06:15:47;48.35;;;32.92;;
21148;SDS011;10732;51.472;6.466;2023-08-12T06:18:13;50.50;;;33.28;;
21148;SDS011;10732;51.472;6.466;2023-08-12T06:20:38;47.67;;;32.33;;
21148;SDS011;10732;51.472;6.466;2023-08-12T06:23:04;47.83;;;33.10;;
21148;SDS011;10732;51.472;6.466;2023-08-12T06:25:29;53.10;;;34.90;;
21148;SDS011;10732;51.472;6.466;2023-08-12T06:27:55;52.38;;;36.95;;
21148;SDS011;10732;51.472;6.466;2023-08-12T06:30:20;54.25;;;37.42;;
21148;SDS011;10732;51.472;6.466;2023-08-12T06:32:46;57.35;;;37.55;;
21148;SDS011;10732;51.472;6.466;2023-08-12T06:35:11;56.38;;;38.95;;
21148;SDS011;10732;51.472;6.466;2023-08-12T06:37:37;54.78;;;37.58;;
21148;SDS011;10732;51.472;6.466;2023-08-12T06:40:03;55.97;;;39.58;;
21148;SDS011;10732;51.472;6.466;2023-08-12T06:42:28;53.50;;;39.28;;
21148;SDS011;10732;51.472;6.466;2023-08-12T06:44:58;49.95;;;37.22;;
21148;SDS011;10732;51.472;6.466;2023-08-12T06:47:25;52.25;;;37.15;;
21148;SDS011;10732;51.472;6.466;2023-08-12T06:49:52;44.95;;;31.52;;
21148;SDS011;10732;51.472;6.466;2023-08-12T06:52:18;47.30;;;34.88;;
21148;SDS011;10732;51.472;6.466;2023-08-12T06:54:43;48.00;;;34.63;;
21148;SDS011;10732;51.472;6.466;2023-08-12T06:57:09;46.72;;;33.65;;
21148;SDS011;10732;51.472;6.466;2023-08-12T06:59:36;42.05;;;31.55;;
21148;SDS011;10732;51.472;6.466;2023-08-12T07:02:02;42.25;;;30.02;;
21148;SDS011;10732;51.472;6.466;2023-08-12T07:04:28;37.90;;;28.95;;
21148;SDS011;10732;51.472;6.466;2023-08-12T07:06:53;42.65;;;30.20;;
21148;SDS011;10732;51.472;6.466;2023-08-12T07:09:19;36.55;;;27.23;;
21148;SDS011;10732;51.472;6.466;2023-08-12T07:11:44;34.92;;;25.10;;
21148;SDS011;10732;51.472;6.466;2023-08-12T07:14:10;31.63;;;24.88;;
21148;SDS011;10732;51.472;6.466;2023-08-12T07:16:35;33.97;;;25.15;;
21148;SDS011;10732;51.472;6.466;2023-08-12T07:19:01;29.63;;;22.58;;
21148;SDS011;10732;51.472;6.466;2023-08-12T07:21:27;26.73;;;20.95;;
21148;SDS011;10732;51.472;6.466;2023-08-12T07:23:52;24.23;;;20.20;;
21148;SDS011;10732;51.472;6.466;2023-08-12T07:26:18;24.65;;;20.40;;
21148;SDS011;10732;51.472;6.466;2023-08-12T07:28:43;22.83;;;18.85;;
21148;SDS011;10732;51.472;6.466;2023-08-12T07:31:09;19.85;;;17.08;;
21148;SDS011;10732;51.472;6.466;2023-08-12T07:33:35;19.52;;;15.95;;
21148;SDS011;10732;51.472;6.466;2023-08-12T07:36:01;18.98;;;16.25;;
21148;SDS011;10732;51.472;6.466;2023-08-12T07:38:27;18.67;;;15.50;;
21148;SDS011;10732;51.472;6.466;2023-08-12T07:40:53;17.88;;;14.57;;
21148;SDS011;10732;51.472;6.466;2023-08-12T07:43:18;17.75;;;14.55;;
21148;SDS011;10732;51.472;6.466;2023-08-12T07:45:44;17.35;;;14.27;;
21148;SDS011;10732;51.472;6.466;2023-08-12T07:48:09;16.27;;;14.35;;
21148;SDS011;10732;51.472;6.466;2023-08-12T07:50:35;16.58;;;13.55;;
21148;SDS011;10732;51.472;6.466;2023-08-12T07:53:00;12.32;;;11.05;;
21148;SDS011;10732;51.472;6.466;2023-08-12T07:55:27;14.63;;;11.98;;
21148;SDS011;10732;51.472;6.466;2023-08-12T07:57:53;11.57;;;10.23;;
21148;SDS011;10732;51.472;6.466;2023-08-12T08:00:18;11.55;;;9.93;;
21148;SDS011;10732;51.472;6.466;2023-08-12T08:02:44;14.15;;;9.40;;
21148;SDS011;10732;51.472;6.466;2023-08-12T08:05:10;11.98;;;9.55;;
21148;SDS011;10732;51.472;6.466;2023-08-12T08:07:35;11.77;;;9.68;;
21148;SDS011;10732;51.472;6.466;2023-08-12T08:10:01;8.75;;;7.85;;
21148;SDS011;10732;51.472;6.466;2023-08-12T08:12:26;7.47;;;6.05;;
21148;SDS011;10732;51.472;6.466;2023-08-12T08:14:52;6.43;;;5.80;;
21148;SDS011;10732;51.472;6.466;2023-08-12T08:17:17;8.50;;;5.82;;
21148;SDS011;10732;51.472;6.466;2023-08-12T08:19:43;6.82;;;5.72;;
21148;SDS011;10732;51.472;6.466;2023-08-12T08:22:08;5.57;;;5.07;;
21148;SDS011;10732;51.472;6.466;2023-08-12T08:24:34;7.07;;;4.85;;
21148;SDS011;10732;51.472;6.466;2023-08-12T08:26:59;6.07;;;4.35;;
21148;SDS011;10732;51.472;6.466;2023-08-12T08:29:25;4.72;;;4.10;;
21148;SDS011;10732;51.472;6.466;2023-08-12T08:31:50;5.22;;;3.90;;
21148;SDS011;10732;51.472;6.466;2023-08-12T08:34:16;4.38;;;3.97;;
21148;SDS011;10732;51.472;6.466;2023-08-12T08:36:42;7.40;;;4.15;;
21148;SDS011;10732;51.472;6.466;2023-08-12T08:39:08;4.32;;;3.50;;
21148;SDS011;10732;51.472;6.466;2023-08-12T08:41:35;4.55;;;3.90;;
21148;SDS011;10732;51.472;6.466;2023-08-12T08:44:03;3.95;;;3.15;;
21148;SDS011;10732;51.472;6.466;2023-08-12T08:46:32;4.00;;;3.20;;
21148;SDS011;10732;51.472;6.466;2023-08-12T08:48:59;4.93;;;3.10;;
21148;SDS011;10732;51.472;6.466;2023-08-12T08:51:25;3.17;;;2.88;;
21148;SDS011;10732;51.472;6.466;2023-08-12T08:53:53;4.40;;;3.08;;
21148;SDS011;10732;51.472;6.466;2023-08-12T08:56:20;3.28;;;2.97;;
21148;SDS011;10732;51.472;6.466;2023-08-12T08:58:47;4.28;;;3.00;;
21148;SDS011;10732;51.472;6.466;2023-08-12T09:01:12;4.90;;;2.95;;
21148;SDS011;10732;51.472;6.466;2023-08-12T09:03:40;3.20;;;2.90;;
21148;SDS011;10732;51.472;6.466;2023-08-12T09:06:07;3.67;;;3.17;;
21148;SDS011;10732;51.472;6.466;2023-08-12T09:08:33;2.70;;;2.40;;
21148;SDS011;10732;51.472;6.466;2023-08-12T09:11:00;2.45;;;2.25;;
21148;SDS011;10732;51.472;6.466;2023-08-12T09:13:27;3.22;;;2.38;;
21148;SDS011;10732;51.472;6.466;2023-08-12T09:15:53;4.85;;;2.60;;
21148;SDS011;10732;51.472;6.466;2023-08-12T09:18:19;3.83;;;2.53;;
21148;SDS011;10732;51.472;6.466;2023-08-12T09:20:49;2.50;;;2.10;;
21148;SDS011;10732;51.472;6.466;2023-08-12T09:23:18;2.42;;;2.22;;
21148;SDS011;10732;51.472;6.466;2023-08-12T09:25:43;5.05;;;2.45;;
21148;SDS011;10732;51.472;6.466;2023-08-12T09:28:10;5.13;;;2.30;;
21148;SDS011;10732;51.472;6.466;2023-08-12T09:30:37;4.72;;;2.40;;
21148;SDS011;10732;51.472;6.466;2023-08-12T09:33:04;2.40;;;2.20;;
21148;SDS011;10732;51.472;6.466;2023-08-12T09:35:39;5.15;;;2.47;;
21148;SDS011;10732;51.472;6.466;2023-08-12T09:38:14;2.88;;;2.60;;
21148;SDS011;10732;51.472;6.466;2023-08-12T09:40:40;2.65;;;2.45;;
21148;SDS011;10732;51.472;6.466;2023-08-12T09:43:06;3.78;;;2.47;;
21148;SDS011;10732;51.472;6.466;2023-08-12T09:45:32;3.15;;;2.70;;
21148;SDS011;10732;51.472;6.466;2023-08-12T09:47:58;4.57;;;2.40;;
21148;SDS011;10732;51.472;6.466;2023-08-12T09:50:27;4.10;;;2.30;;
21148;SDS011;10732;51.472;6.466;2023-08-12T09:52:53;3.17;;;2.50;;
21148;SDS011;10732;51.472;6.466;2023-08-12T09:55:21;3.22;;;2.20;;
21148;SDS011;10732;51.472;6.466;2023-08-12T09:57:50;2.88;;;2.50;;
21148;SDS011;10732;51.472;6.466;2023-08-12T10:00:22;4.65;;;2.15;;
21148;SDS011;10732;51.472;6.466;2023-08-12T10:02:50;2.90;;;2.00;;
21148;SDS011;10732;51.472;6.466;2023-08-12T10:05:24;2.40;;;2.13;;
21148;SDS011;10732;51.472;6.466;2023-08-12T10:07:55;4.22;;;2.10;;
21148;SDS011;10732;51.472;6.466;2023-08-12T10:10:21;3.50;;;2.25;;
21148;SDS011;10732;51.472;6.466;2023-08-12T10:12:49;2.65;;;1.95;;
21148;SDS011;10732;51.472;6.466;2023-08-12T10:15:16;3.42;;;1.85;;
21148;SDS011;10732;51.472;6.466;2023-08-12T10:17:42;2.03;;;1.88;;
21148;SDS011;10732;51.472;6.466;2023-08-12T10:20:09;2.28;;;1.92;;
21148;SDS011;10732;51.472;6.466;2023-08-12T10:22:37;2.53;;;1.85;;
21148;SDS011;10732;51.472;6.466;2023-08-12T10:25:05;3.42;;;1.85;;
21148;SDS011;10732;51.472;6.466;2023-08-12T10:27:36;3.05;;;1.73;;
21148;SDS011;10732;51.472;6.466;2023-08-12T10:30:05;1.95;;;1.75;;
21148;SDS011;10732;51.472;6.466;2023-08-12T10:32:33;2.33;;;1.90;;
21148;SDS011;10732;51.472;6.466;2023-08-12T10:34:59;2.13;;;1.90;;
21148;SDS011;10732;51.472;6.466;2023-08-12T10:37:24;2.15;;;1.95;;
21148;SDS011;10732;51.472;6.466;2023-08-12T10:39:54;3.03;;;2.05;;
21148;SDS011;10732;51.472;6.466;2023-08-12T10:45:09;3.97;;;3.65;;
21148;SDS011;10732;51.472;6.466;2023-08-12T10:47:39;3.25;;;3.05;;
21148;SDS011;10732;51.472;6.466;2023-08-12T10:50:28;4.38;;;3.97;;
21148;SDS011;10732;51.472;6.466;2023-08-12T10:52:56;4.93;;;4.43;;
21148;SDS011;10732;51.472;6.466;2023-08-12T10:55:23;4.80;;;4.40;;
21148;SDS011;10732;51.472;6.466;2023-08-12T10:57:50;4.65;;;4.25;;
21148;SDS011;10732;51.472;6.466;2023-08-12T11:00:18;7.15;;;4.70;;
21148;SDS011;10732;51.472;6.466;2023-08-12T11:02:48;5.95;;;4.45;;
21148;SDS011;10732;51.472;6.466;2023-08-12T11:05:16;5.25;;;4.80;;
21148;SDS011;10732;51.472;6.466;2023-08-12T11:07:44;5.50;;;5.00;;
21148;SDS011;10732;51.472;6.466;2023-08-12T11:12:48;6.05;;;5.50;;
21148;SDS011;10732;51.472;6.466;2023-08-12T11:15:17;5.20;;;4.80;;
21148;SDS011;10732;51.472;6.466;2023-08-12T11:17:45;4.70;;;4.10;;
21148;SDS011;10732;51.472;6.466;2023-08-12T11:20:12;5.28;;;4.85;;
21148;SDS011;10732;51.472;6.466;2023-08-12T11:22:41;4.20;;;3.90;;
21148;SDS011;10732;51.472;6.466;2023-08-12T11:25:09;4.70;;;4.30;;
21148;SDS011;10732;51.472;6.466;2023-08-12T11:27:37;8.38;;;5.45;;
21148;SDS011;10732;51.472;6.466;2023-08-12T11:30:13;5.50;;;5.00;;
21148;SDS011;10732;51.472;6.466;2023-08-12T11:32:41;5.63;;;5.07;;
21148;SDS011;10732;51.472;6.466;2023-08-12T11:35:08;6.32;;;5.72;;
21148;SDS011;10732;51.472;6.466;2023-08-12T11:37:36;8.23;;;6.35;;
21148;SDS011;10732;51.472;6.466;2023-08-12T11:40:02;7.00;;;6.30;;
21148;SDS011;10732;51.472;6.466;2023-08-12T11:42:29;6.65;;;6.15;;
21148;SDS011;10732;51.472;6.466;2023-08-12T11:44:54;7.00;;;6.50;;
21148;SDS011;10732;51.472;6.466;2023-08-12T11:47:20;6.40;;;5.90;;
21148;SDS011;10732;51.472;6.466;2023-08-12T11:49:46;6.72;;;6.18;;
21148;SDS011;10732;51.472;6.466;2023-08-12T11:52:11;6.55;;;5.95;;
21148;SDS011;10732;51.472;6.466;2023-08-12T11:54:38;7.10;;;6.40;;
21148;SDS011;10732;51.472;6.466;2023-08-12T11:57:04;6.28;;;5.78;;
21148;SDS011;10732;51.472;6.466;2023-08-12T11:59:30;6.28;;;5.68;;
21148;SDS011;10732;51.472;6.466;2023-08-12T12:01:56;6.70;;;6.20;;
21148;SDS011;10732;51.472;6.466;2023-08-12T12:04:22;6.15;;;5.65;;
21148;SDS011;10732;51.472;6.466;2023-08-12T12:06:47;6.60;;;6.10;;
21148;SDS011;10732;51.472;6.466;2023-08-12T12:09:13;7.35;;;6.65;;
21148;SDS011;10732;51.472;6.466;2023-08-12T12:11:41;7.13;;;6.53;;
21148;SDS011;10732;51.472;6.466;2023-08-12T12:14:07;6.82;;;6.32;;
21148;SDS011;10732;51.472;6.466;2023-08-12T12:16:38;7.30;;;6.60;;
21148;SDS011;10732;51.472;6.466;2023-08-12T12:19:08;7.63;;;7.03;;
21148;SDS011;10732;51.472;6.466;2023-08-12T12:21:48;10.38;;;6.72;;
21148;SDS011;10732;51.472;6.466;2023-08-12T12:24:17;7.90;;;7.15;;
21148;SDS011;10732;51.472;6.466;2023-08-12T12:26:44;8.10;;;7.40;;
21148;SDS011;10732;51.472;6.466;2023-08-12T12:29:10;7.63;;;7.03;;
21148;SDS011;10732;51.472;6.466;2023-08-12T12:31:39;7.47;;;6.88;;
21148;SDS011;10732;51.472;6.466;2023-08-12T12:34:06;7.72;;;5.95;;
21148;SDS011;10732;51.472;6.466;2023-08-12T12:36:34;5.35;;;4.85;;
21148;SDS011;10732;51.472;6.466;2023-08-12T12:39:02;7.20;;;5.50;;
21148;SDS011;10732;51.472;6.466;2023-08-12T12:41:28;5.88;;;5.38;;
21148;SDS011;10732;51.472;6.466;2023-08-12T12:43:54;6.68;;;4.78;;
21148;SDS011;10732;51.472;6.466;2023-08-12T12:46:20;4.47;;;4.07;;
21148;SDS011;10732;51.472;6.466;2023-08-12T12:48:46;3.30;;;3.10;;
21148;SDS011;10732;51.472;6.466;2023-08-12T12:51:12;6.65;;;2.70;;
21148;SDS011;10732;51.472;6.466;2023-08-12T12:53:38;3.33;;;2.83;;
21148;SDS011;10732;51.472;6.466;2023-08-12T12:56:04;3.55;;;2.50;;
21148;SDS011;10732;51.472;6.466;2023-08-12T12:58:31;3.22;;;2.72;;
21148;SDS011;10732;51.472;6.466;2023-08-12T13:00:58;3.97;;;2.55;;
21148;SDS011;10732;51.472;6.466;2023-08-12T13:03:24;3.03;;;2.63;;
21148;SDS011;10732;51.472;6.466;2023-08-12T13:05:49;3.05;;;2.60;;
21148;SDS011;10732;51.472;6.466;2023-08-12T13:08:15;4.03;;;2.42;;
21148;SDS011;10732;51.472;6.466;2023-08-12T13:10:41;3.78;;;2.70;;
21148;SDS011;10732;51.472;6.466;2023-08-12T13:13:06;3.60;;;2.60;;
21148;SDS011;10732;51.472;6.466;2023-08-12T13:15:32;4.93;;;2.65;;
21148;SDS011;10732;51.472;6.466;2023-08-12T13:17:57;2.88;;;2.67;;
21148;SDS011;10732;51.472;6.466;2023-08-12T13:20:23;3.00;;;2.70;;
21148;SDS011;10732;51.472;6.466;2023-08-12T13:22:48;3.03;;;2.45;;
21148;SDS011;10732;51.472;6.466;2023-08-12T13:25:14;4.38;;;2.42;;
21148;SDS011;10732;51.472;6.466;2023-08-12T13:27:39;2.50;;;2.30;;
21148;SDS011;10732;51.472;6.466;2023-08-12T13:30:05;2.33;;;2.08;;
21148;SDS011;10732;51.472;6.466;2023-08-12T13:32:31;4.78;;;2.38;;
21148;SDS011;10732;51.472;6.466;2023-08-12T13:34:57;2.78;;;2.38;;
21148;SDS011;10732;51.472;6.466;2023-08-12T13:37:22;3.90;;;2.00;;
21148;SDS011;10732;51.472;6.466;2023-08-12T13:39:48;3.30;;;2.22;;
21148;SDS011;10732;51.472;6.466;2023-08-12T13:42:22;5.65;;;2.20;;
21148;SDS011;10732;51.472;6.466;2023-08-12T13:44:48;3.97;;;1.73;;
21148;SDS011;10732;51.472;6.466;2023-08-12T13:47:13;3.88;;;1.92;;
21148;SDS011;10732;51.472;6.466;2023-08-12T13:49:39;2.28;;;1.90;;
21148;SDS011;10732;51.472;6.466;2023-08-12T13:52:05;2.22;;;2.00;;
21148;SDS011;10732;51.472;6.466;2023-08-12T13:54:30;2.53;;;2.00;;
21148;SDS011;10732;51.472;6.466;2023-08-12T13:56:56;3.38;;;1.60;;
21148;SDS011;10732;51.472;6.466;2023-08-12T13:59:21;3.38;;;1.77;;
21148;SDS011;10732;51.472;6.466;2023-08-12T14:01:47;4.72;;;1.60;;
21148;SDS011;10732;51.472;6.466;2023-08-12T14:04:12;2.42;;;1.23;;
21148;SDS011;10732;51.472;6.466;2023-08-12T14:06:38;4.45;;;1.70;;
21148;SDS011;10732;51.472;6.466;2023-08-12T14:09:05;4.93;;;1.50;;
21148;SDS011;10732;51.472;6.466;2023-08-12T14:11:32;2.60;;;1.40;;
21148;SDS011;10732;51.472;6.466;2023-08-12T14:13:58;4.55;;;1.48;;
21148;SDS011;10732;51.472;6.466;2023-08-12T14:16:24;4.53;;;1.52;;
21148;SDS011;10732;51.472;6.466;2023-08-12T14:18:49;2.58;;;1.48;;
21148;SDS011;10732;51.472;6.466;2023-08-12T14:21:15;4.25;;;1.80;;
21148;SDS011;10732;51.472;6.466;2023-08-12T14:23:40;2.88;;;1.75;;
21148;SDS011;10732;51.472;6.466;2023-08-12T14:26:06;2.30;;;1.40;;
21148;SDS011;10732;51.472;6.466;2023-08-12T14:28:31;2.67;;;1.50;;
21148;SDS011;10732;51.472;6.466;2023-08-12T14:30:57;4.35;;;1.80;;
21148;SDS011;10732;51.472;6.466;2023-08-12T14:33:22;3.20;;;1.52;;
21148;SDS011;10732;51.472;6.466;2023-08-12T14:35:50;3.40;;;1.83;;